createdAt,value
2023-02-20T00:01:21.513Z,34.45
2023-02-20T00:03:53.732Z,34.63
2023-02-20T00:07:15.446Z,44.42
2023-02-20T00:09:50.574Z,39.15
2023-02-20T00:12:26.891Z,35.90
2023-02-20T00:14:56.677Z,33.30
2023-02-20T00:17:28.911Z,35.92
2023-02-20T00:20:07.134Z,34.90
2023-02-20T00:22:40.695Z,37.42
2023-02-20T00:25:08.216Z,35.45
2023-02-20T00:27:42.269Z,35.92
2023-02-20T00:32:58.120Z,34.40
2023-02-20T00:35:28.843Z,38.25
2023-02-20T00:38:08.075Z,36.72
2023-02-20T00:40:36.555Z,44.78
2023-02-20T00:43:10.285Z,40.70
2023-02-20T00:45:42.369Z,41.08
2023-02-20T00:48:26.157Z,31.33
2023-02-20T00:51:29.220Z,36.75
2023-02-20T00:54:00.361Z,37.47
2023-02-20T00:56:39.086Z,34.17
2023-02-20T00:59:21.719Z,36.30
2023-02-20T01:02:00.558Z,31.08
2023-02-20T01:04:30.540Z,36.83
2023-02-20T01:07:16.582Z,38.90
2023-02-20T01:09:51.968Z,36.38
2023-02-20T01:15:30.112Z,32.97
2023-02-20T01:18:02.733Z,34.42
2023-02-20T01:20:35.923Z,35.55
2023-02-20T01:23:07.508Z,34.97
2023-02-20T01:25:36.400Z,28.98
2023-02-20T01:28:24.544Z,33.05
2023-02-20T01:30:59.932Z,34.30
2023-02-20T01:36:45.474Z,33.90
2023-02-20T01:39:21.699Z,29.60
2023-02-20T01:41:55.969Z,32.45
2023-02-20T01:44:36.903Z,32.38
2023-02-20T01:47:31.270Z,47.13
2023-02-20T01:50:05.696Z,34.97
2023-02-20T01:52:42.688Z,31.58
2023-02-20T01:55:40.554Z,30.58
2023-02-20T01:58:32.250Z,27.90
2023-02-20T02:01:09.163Z,32.67
2023-02-20T02:04:13.545Z,31.90
2023-02-20T02:07:01.405Z,30.77
2023-02-20T02:12:43.580Z,40.58
2023-02-20T02:18:08.752Z,38.38
2023-02-20T02:21:11.747Z,33.42
2023-02-20T02:24:25.384Z,29.63
2023-02-20T02:27:02.147Z,29.80
2023-02-20T02:30:25.231Z,27.58
2023-02-20T02:33:31.220Z,37.30
2023-02-20T02:36:02.838Z,32.25
2023-02-20T02:39:47.051Z,36.50
2023-02-20T02:43:01.054Z,40.22
2023-02-20T02:49:15.269Z,30.17
2023-02-20T02:51:54.988Z,33.20
2023-02-20T02:54:39.193Z,32.42
2023-02-20T02:57:32.876Z,42.23
2023-02-20T03:00:53.997Z,33.28
2023-02-20T03:03:41.145Z,34.25
2023-02-20T03:06:23.594Z,29.20
2023-02-20T03:09:15.685Z,33.33
2023-02-20T03:12:13.003Z,34.88
2023-02-20T03:15:11.977Z,31.70
2023-02-20T03:17:46.176Z,34.78
2023-02-20T03:23:07.509Z,32.80
2023-02-20T03:25:43.360Z,32.22
2023-02-20T03:28:59.893Z,43.20
2023-02-20T03:31:48.857Z,34.42
2023-02-20T03:34:45.660Z,30.65
2023-02-20T03:37:45.308Z,29.38
2023-02-20T03:40:48.413Z,40.25
2023-02-20T03:43:32.400Z,29.58
2023-02-20T03:46:07.981Z,30.08
2023-02-20T03:48:53.019Z,34.15
2023-02-20T03:51:21.364Z,26.92
2023-02-20T03:54:13.106Z,35.00
2023-02-20T03:56:58.504Z,36.90
2023-02-20T03:59:57.828Z,32.13
2023-02-20T04:02:58.476Z,29.65
2023-02-20T04:08:48.981Z,36.33
2023-02-20T04:11:28.684Z,39.78
2023-02-20T04:13:59.936Z,31.00
2023-02-20T04:16:30.180Z,33.70
2023-02-20T04:19:04.650Z,36.88
2023-02-20T04:21:40.057Z,34.67
2023-02-20T04:27:21.114Z,30.67
2023-02-20T04:29:58.413Z,32.20
2023-02-20T04:32:33.054Z,36.60
2023-02-20T04:35:03.155Z,32.65
2023-02-20T04:37:32.432Z,38.70
2023-02-20T04:40:11.345Z,39.50
2023-02-20T04:42:48.237Z,35.38
2023-02-20T04:45:21.506Z,43.95
2023-02-20T04:47:53.776Z,31.30
2023-02-20T04:50:34.676Z,34.13
2023-02-20T04:53:19.762Z,33.67
2023-02-20T04:55:50.155Z,34.30
2023-02-20T04:58:25.024Z,33.38
2023-02-20T05:01:24.610Z,33.55
2023-02-20T05:03:54.290Z,39.27
2023-02-20T05:06:22.972Z,29.23
2023-02-20T05:08:53.738Z,35.17
2023-02-20T05:11:24.248Z,31.90
2023-02-20T05:16:32.637Z,34.67
2023-02-20T05:19:05.847Z,35.15
2023-02-20T05:21:54.359Z,37.25
2023-02-20T05:24:28.568Z,34.80
2023-02-20T05:26:58.892Z,31.05
2023-02-20T05:29:28.759Z,31.58
2023-02-20T05:31:58.542Z,37.67
2023-02-20T05:34:28.275Z,31.95
2023-02-20T05:37:03.177Z,32.22
2023-02-20T05:39:39.803Z,35.15
2023-02-20T05:42:09.872Z,33.40
2023-02-20T05:44:38.307Z,31.63
2023-02-20T05:47:16.529Z,34.40
2023-02-20T05:49:47.780Z,32.33
2023-02-20T05:52:17.414Z,33.28
2023-02-20T05:54:54.683Z,34.30
2023-02-20T05:57:28.878Z,36.97
2023-02-20T05:59:59.159Z,31.75
2023-02-20T06:02:34.197Z,36.05
2023-02-20T06:05:10.659Z,28.90
2023-02-20T06:08:15.314Z,30.33
2023-02-20T06:10:52.049Z,34.45
2023-02-20T06:13:21.571Z,39.53
2023-02-20T06:15:51.952Z,31.88
2023-02-20T06:18:27.923Z,32.60
2023-02-20T06:21:02.631Z,30.83
2023-02-20T06:23:38.907Z,30.58
2023-02-20T06:26:13.990Z,34.22
2023-02-20T06:28:50.382Z,34.70
2023-02-20T06:31:36.006Z,41.50
2023-02-20T06:34:08.165Z,27.13
2023-02-20T06:36:38.440Z,34.47
2023-02-20T06:39:07.711Z,35.22
2023-02-20T06:41:37.955Z,35.42
2023-02-20T06:44:08.429Z,29.20
2023-02-20T06:46:36.198Z,28.60
2023-02-20T06:49:03.926Z,33.80
2023-02-20T06:51:40.110Z,37.25
2023-02-20T06:54:08.850Z,35.63
2023-02-20T06:56:39.634Z,32.83
2023-02-20T06:59:09.483Z,32.47
2023-02-20T07:01:42.780Z,46.55
2023-02-20T07:04:22.090Z,34.00
2023-02-20T07:06:49.943Z,38.63
2023-02-20T07:09:20.878Z,39.63
2023-02-20T07:11:50.780Z,33.83
2023-02-20T07:14:24.811Z,40.95
2023-02-20T07:16:52.637Z,33.03
2023-02-20T07:19:19.928Z,34.28
2023-02-20T07:21:50.952Z,36.85
2023-02-20T07:24:20.828Z,47.90
2023-02-20T07:26:51.453Z,40.67
2023-02-20T07:29:30.982Z,48.10
2023-02-20T07:32:01.383Z,61.55
2023-02-20T07:34:29.184Z,38.63
2023-02-20T07:37:09.792Z,49.25
2023-02-20T07:39:50.730Z,40.38
2023-02-20T07:42:21.048Z,45.63
2023-02-20T07:45:07.142Z,34.88
2023-02-20T07:47:44.489Z,52.15
2023-02-20T07:50:15.130Z,50.22
2023-02-20T07:52:46.438Z,40.85
2023-02-20T07:55:24.668Z,43.45
2023-02-20T07:57:58.637Z,46.58
2023-02-20T08:00:39.240Z,40.50
2023-02-20T08:03:16.039Z,44.50
2023-02-20T08:05:49.618Z,59.55
2023-02-20T08:11:09.496Z,40.63
2023-02-20T08:13:38.553Z,34.03
2023-02-20T08:16:08.993Z,43.47
2023-02-20T08:18:49.292Z,32.50
2023-02-20T08:21:16.679Z,40.72
2023-02-20T08:23:50.036Z,37.83
2023-02-20T08:26:31.034Z,39.15
2023-02-20T08:29:07.205Z,75.65
2023-02-20T08:31:51.359Z,50.70
2023-02-20T08:34:24.875Z,36.08
2023-02-20T08:37:05.128Z,42.65
2023-02-20T08:39:37.856Z,50.58
2023-02-20T08:42:05.127Z,38.73
2023-02-20T08:44:45.871Z,34.20
2023-02-20T08:47:16.753Z,41.97
2023-02-20T08:49:49.739Z,35.20
2023-02-20T08:52:17.752Z,45.25
2023-02-20T08:55:04.105Z,36.63
2023-02-20T08:57:31.505Z,51.65
2023-02-20T09:00:01.634Z,37.58
2023-02-20T09:02:35.346Z,41.78
2023-02-20T09:05:06.277Z,34.17
2023-02-20T09:07:33.930Z,43.05
2023-02-20T09:10:23.883Z,30.42
2023-02-20T09:13:06.550Z,35.78
2023-02-20T09:15:52.795Z,29.15
2023-02-20T09:18:39.220Z,39.40
2023-02-20T09:21:18.304Z,31.63
2023-02-20T09:23:56.879Z,43.25
2023-02-20T09:26:30.755Z,29.20
2023-02-20T09:29:07.013Z,25.30
2023-02-20T09:31:42.726Z,32.22
2023-02-20T09:34:16.620Z,29.45
2023-02-20T09:36:56.752Z,26.70
2023-02-20T09:39:27.204Z,30.80
2023-02-20T09:42:12.354Z,31.20
2023-02-20T09:45:06.507Z,25.95
2023-02-20T09:51:13.929Z,25.67
2023-02-20T09:54:10.611Z,20.33
2023-02-20T09:56:46.576Z,21.70
2023-02-20T09:59:30.022Z,20.40
2023-02-20T10:02:08.308Z,18.92
2023-02-20T10:05:01.390Z,24.98
2023-02-20T10:07:46.975Z,23.08
2023-02-20T10:10:32.004Z,17.35
2023-02-20T10:13:18.115Z,19.50
2023-02-20T10:16:10.518Z,20.80
2023-02-20T10:19:14.176Z,18.85
2023-02-20T10:22:02.079Z,22.20
2023-02-20T10:24:44.694Z,22.38
2023-02-20T10:27:34.104Z,16.98
2023-02-20T10:30:08.821Z,19.25
2023-02-20T10:33:17.658Z,15.25
2023-02-20T10:35:59.488Z,16.90
2023-02-20T10:38:34.681Z,18.20
2023-02-20T10:41:21.233Z,14.85
2023-02-20T10:44:04.160Z,17.48
2023-02-20T10:46:53.628Z,13.32
2023-02-20T10:49:53.738Z,15.30
2023-02-20T10:52:34.474Z,14.52
2023-02-20T10:55:36.240Z,16.60
2023-02-20T10:58:45.478Z,17.23
2023-02-20T11:01:22.364Z,18.08
2023-02-20T11:04:17.654Z,16.63
2023-02-20T11:06:47.560Z,14.52
2023-02-20T11:09:30.660Z,14.43
2023-02-20T11:15:16.279Z,17.95
2023-02-20T11:17:55.691Z,18.25
2023-02-20T11:20:37.482Z,13.25
2023-02-20T11:23:05.662Z,18.73
2023-02-20T11:25:42.384Z,13.02
2023-02-20T11:28:12.577Z,17.30
2023-02-20T11:30:47.600Z,15.07
2023-02-20T11:33:26.614Z,18.75
2023-02-20T11:35:57.872Z,16.02
2023-02-20T11:38:32.424Z,16.95
2023-02-20T11:41:05.536Z,17.25
2023-02-20T11:43:40.941Z,18.00
2023-02-20T11:46:19.145Z,15.02
2023-02-20T11:49:10.839Z,14.48
2023-02-20T11:51:48.502Z,13.13
2023-02-20T11:55:04.778Z,14.05
2023-02-20T11:58:05.658Z,20.30
2023-02-20T12:01:07.811Z,21.17
2023-02-20T12:03:41.713Z,17.45
2023-02-20T12:06:41.608Z,22.42
2023-02-20T12:09:31.088Z,19.23
2023-02-20T12:12:04.092Z,17.90
2023-02-20T12:14:42.641Z,16.25
2023-02-20T12:17:29.090Z,16.60
2023-02-20T12:20:19.624Z,16.95
2023-02-20T12:23:30.358Z,14.82
2023-02-20T12:26:40.224Z,18.55
2023-02-20T12:29:44.811Z,19.42
2023-02-20T12:32:35.153Z,13.30
2023-02-20T12:35:49.578Z,15.18
2023-02-20T12:38:43.355Z,14.10
2023-02-20T12:41:28.679Z,18.65
2023-02-20T12:44:27.126Z,18.38
2023-02-20T12:54:04.586Z,11.75
2023-02-20T12:57:03.965Z,8.85
2023-02-20T13:00:22.196Z,14.35
2023-02-20T13:03:17.185Z,12.13
2023-02-20T13:05:56.840Z,13.57
2023-02-20T13:08:48.585Z,9.90
2023-02-20T13:11:52.657Z,13.45
2023-02-20T13:15:15.919Z,13.40
2023-02-20T13:18:20.591Z,10.05
2023-02-20T13:21:03.650Z,13.88
2023-02-20T13:23:53.382Z,12.32
2023-02-20T13:30:30.140Z,14.10
2023-02-20T13:33:28.502Z,12.05
2023-02-20T13:36:26.386Z,13.40
2023-02-20T13:39:34.182Z,14.00
2023-02-20T13:42:40.440Z,15.45
2023-02-20T13:45:39.061Z,17.95
2023-02-20T13:48:50.226Z,18.45
2023-02-20T13:51:36.312Z,25.02
2023-02-20T13:54:42.207Z,18.55
2023-02-20T14:01:49.152Z,19.35
2023-02-20T14:08:11.544Z,24.38
2023-02-20T14:11:20.000Z,20.02
2023-02-20T14:14:28.670Z,20.02
2023-02-20T14:17:41.901Z,22.92
2023-02-20T14:20:36.945Z,21.80
2023-02-20T14:23:30.793Z,23.33
2023-02-20T14:26:31.743Z,25.27
2023-02-20T14:29:35.252Z,22.92
2023-02-20T14:32:31.873Z,25.08
2023-02-20T14:35:33.267Z,34.15
2023-02-20T14:38:37.192Z,24.23
2023-02-20T14:41:23.986Z,28.10
2023-02-20T14:44:23.875Z,27.80
2023-02-20T14:47:09.785Z,24.48
2023-02-20T14:49:46.545Z,26.80
2023-02-20T14:52:41.886Z,29.70
2023-02-20T14:55:32.257Z,36.95
2023-02-20T14:58:42.761Z,34.20
2023-02-20T15:01:28.293Z,28.55
2023-02-20T15:04:19.177Z,31.77
2023-02-20T15:07:07.838Z,33.28
2023-02-20T15:10:00.591Z,27.60
2023-02-20T15:12:50.877Z,34.40
2023-02-20T15:15:42.358Z,25.83
2023-02-20T15:18:53.424Z,36.65
2023-02-20T15:21:44.457Z,29.33
2023-02-20T15:24:41.432Z,29.40
2023-02-20T15:27:38.093Z,31.73
2023-02-20T15:30:29.645Z,32.80
2023-02-20T15:33:16.611Z,33.80
2023-02-20T15:36:06.163Z,32.08
2023-02-20T15:38:59.275Z,26.70
2023-02-20T15:41:58.898Z,27.80
2023-02-20T15:44:32.967Z,27.95
2023-02-20T15:47:24.795Z,26.83
2023-02-20T15:50:06.057Z,30.42
2023-02-20T15:52:51.862Z,24.67
2023-02-20T15:55:48.848Z,30.97
2023-02-20T15:58:51.981Z,28.35
2023-02-20T16:01:41.168Z,29.13
2023-02-20T16:04:19.955Z,27.23
2023-02-20T16:07:01.359Z,25.70
2023-02-20T16:10:05.598Z,24.48
2023-02-20T16:12:44.085Z,30.80
2023-02-20T16:15:25.721Z,27.65
2023-02-20T16:18:01.221Z,31.35
2023-02-20T16:20:40.057Z,24.95
2023-02-20T16:23:16.205Z,26.00
2023-02-20T16:26:14.867Z,28.77
2023-02-20T16:29:10.503Z,22.77
2023-02-20T16:32:38.321Z,34.50
2023-02-20T16:35:33.145Z,22.67
2023-02-20T16:38:06.019Z,27.25
2023-02-20T16:40:44.130Z,29.88
2023-02-20T16:43:24.191Z,25.92
2023-02-20T16:45:55.154Z,28.38
2023-02-20T16:51:22.859Z,22.38
2023-02-20T16:53:57.806Z,26.75
2023-02-20T16:56:33.851Z,34.70
2023-02-20T16:59:04.604Z,26.70
2023-02-20T17:01:37.429Z,35.10
2023-02-20T17:04:14.775Z,28.90
2023-02-20T17:06:49.926Z,23.45
2023-02-20T17:09:41.970Z,25.90
2023-02-20T17:13:18.455Z,22.40
2023-02-20T17:16:00.901Z,29.58
2023-02-20T17:18:42.722Z,27.00
2023-02-20T17:21:22.912Z,34.13
2023-02-20T17:24:02.343Z,24.45
2023-02-20T17:26:46.653Z,26.08
2023-02-20T17:30:03.570Z,27.25
2023-02-20T17:32:52.656Z,33.35
2023-02-20T17:35:43.329Z,24.48
2023-02-20T17:38:21.952Z,24.00
2023-02-20T17:44:33.993Z,24.80
2023-02-20T17:47:35.945Z,29.88
2023-02-20T17:50:26.082Z,25.95
2023-02-20T17:55:59.860Z,18.05
2023-02-20T17:58:54.771Z,17.27
2023-02-20T18:01:36.505Z,19.77
2023-02-20T18:04:22.537Z,17.40
2023-02-20T18:07:15.216Z,17.90
2023-02-20T18:13:03.178Z,17.55
2023-02-20T18:15:41.773Z,18.23
2023-02-20T18:18:27.644Z,18.27
2023-02-20T18:21:00.725Z,20.58
2023-02-20T18:23:40.138Z,17.30
2023-02-20T18:28:54.952Z,17.08
2023-02-20T18:31:29.271Z,18.20
2023-02-20T18:33:59.996Z,15.43
2023-02-20T18:36:33.647Z,14.65
2023-02-20T18:39:21.572Z,19.33
2023-02-20T18:41:59.128Z,16.83
2023-02-20T18:44:38.438Z,19.63
2023-02-20T18:47:32.455Z,15.05
2023-02-20T18:50:26.050Z,17.83
2023-02-20T18:53:07.976Z,23.50
2023-02-20T18:55:38.278Z,20.27
2023-02-20T18:58:08.287Z,16.77
2023-02-20T19:01:10.303Z,14.80
2023-02-20T19:04:06.106Z,15.77
2023-02-20T19:06:57.557Z,17.15
2023-02-20T19:09:39.404Z,18.35
2023-02-20T19:12:15.049Z,20.67
2023-02-20T19:14:58.497Z,34.42
2023-02-20T19:17:39.554Z,33.60
2023-02-20T19:20:23.597Z,24.70
2023-02-20T19:23:05.113Z,25.98
2023-02-20T19:25:44.863Z,22.33
2023-02-20T19:28:18.558Z,24.65
2023-02-20T19:33:38.430Z,28.40
2023-02-20T19:36:17.283Z,25.02
2023-02-20T19:38:57.760Z,26.08
2023-02-20T19:41:35.518Z,28.30
2023-02-20T19:44:26.722Z,33.60
2023-02-20T19:47:19.110Z,33.88
2023-02-20T19:50:07.324Z,39.95
2023-02-20T19:52:48.377Z,30.73
2023-02-20T19:55:29.087Z,33.38
2023-02-20T19:58:03.123Z,36.85
2023-02-20T20:00:38.858Z,30.38
2023-02-20T20:03:30.447Z,33.17
2023-02-20T20:06:07.633Z,30.60
2023-02-20T20:09:01.946Z,31.55
2023-02-20T20:11:39.556Z,29.40
2023-02-20T20:14:21.508Z,35.75
2023-02-20T20:17:03.917Z,30.00
2023-02-20T20:19:36.478Z,31.25
2023-02-20T20:22:13.438Z,31.98
2023-02-20T20:24:54.607Z,31.92
2023-02-20T20:27:36.734Z,33.20
2023-02-20T20:30:30.795Z,36.80
2023-02-20T20:33:04.890Z,42.30
2023-02-20T20:38:29.130Z,31.25
2023-02-20T20:41:04.736Z,38.03
2023-02-20T20:43:48.444Z,32.80
2023-02-20T20:46:26.915Z,32.03
2023-02-20T20:49:03.881Z,38.20
2023-02-20T20:51:38.529Z,32.13
2023-02-20T20:54:20.037Z,33.85
2023-02-20T20:56:59.109Z,36.75
2023-02-20T20:59:31.514Z,36.90
2023-02-20T21:02:16.369Z,34.22
2023-02-20T21:05:10.135Z,38.47
2023-02-20T21:08:06.868Z,37.95
2023-02-20T21:14:00.105Z,40.47
2023-02-20T21:16:50.291Z,41.03
2023-02-20T21:19:26.624Z,34.92
2023-02-20T21:21:59.809Z,39.15
2023-02-20T21:24:44.048Z,36.63
2023-02-20T21:27:24.260Z,41.25
2023-02-20T21:30:04.863Z,40.55
2023-02-20T21:32:55.044Z,36.30
2023-02-20T21:35:47.350Z,37.25
2023-02-20T21:46:09.458Z,36.08
2023-02-20T21:49:02.996Z,40.72
2023-02-20T21:51:34.647Z,35.80
2023-02-20T21:54:35.408Z,35.80
2023-02-20T22:00:24.798Z,47.05
2023-02-20T22:02:58.631Z,40.08
2023-02-20T22:05:35.732Z,46.25
2023-02-20T22:08:47.223Z,43.28
2023-02-20T22:11:46.413Z,45.50
2023-02-20T22:14:55.662Z,48.50
2023-02-20T22:17:58.051Z,42.75
2023-02-20T22:21:06.805Z,44.80
2023-02-20T22:30:49.330Z,56.30
2023-02-20T22:33:41.924Z,56.70
2023-02-20T22:36:42.796Z,49.63
2023-02-20T22:43:16.478Z,57.45
2023-02-20T22:49:38.861Z,61.47
2023-02-20T22:52:48.621Z,55.28
2023-02-20T22:55:55.383Z,64.78
2023-02-20T22:58:50.668Z,62.10
2023-02-20T23:01:59.267Z,59.40
2023-02-20T23:04:57.099Z,67.80
2023-02-20T23:08:01.360Z,77.72
2023-02-20T23:10:59.281Z,62.60
2023-02-20T23:14:21.909Z,58.53
2023-02-20T23:17:43.873Z,66.75
2023-02-20T23:20:46.114Z,66.72
2023-02-20T23:23:48.481Z,62.83
2023-02-20T23:30:26.251Z,63.42
2023-02-20T23:33:22.645Z,83.88
2023-02-20T23:36:32.216Z,79.55
2023-02-20T23:42:36.882Z,76.93
2023-02-20T23:45:24.425Z,70.15
2023-02-20T23:48:20.290Z,69.47
2023-02-20T23:51:21.518Z,66.75
2023-02-20T23:54:23.506Z,79.47
